createdAt,value
2019-02-14T00:01:42.950Z,54.77
2019-02-14T00:03:44.582Z,54.71
2019-02-14T00:05:46.194Z,54.80
2019-02-14T00:07:47.837Z,54.87
2019-02-14T00:09:49.439Z,55.04
2019-02-14T00:11:51.052Z,55.08
2019-02-14T00:13:52.649Z,55.14
2019-02-14T00:15:54.254Z,55.43
2019-02-14T00:17:55.878Z,55.26
2019-02-14T00:19:57.473Z,55.39
2019-02-14T00:21:59.081Z,55.46
2019-02-14T00:24:00.681Z,55.49
2019-02-14T00:26:02.306Z,55.49
2019-02-14T00:28:03.901Z,55.63
2019-02-14T00:30:05.507Z,55.47
2019-02-14T00:32:07.106Z,55.62
2019-02-14T00:34:08.702Z,55.84
2019-02-14T00:36:10.294Z,56.06
2019-02-14T00:38:11.899Z,56.47
2019-02-14T00:40:13.512Z,55.64
2019-02-14T00:42:15.099Z,55.02
2019-02-14T00:44:16.729Z,54.63
2019-02-14T00:46:18.322Z,54.91
2019-02-14T00:48:19.903Z,54.83
2019-02-14T00:50:21.483Z,54.96
2019-02-14T00:52:23.083Z,55.02
2019-02-14T00:54:24.696Z,54.96
2019-02-14T00:56:26.312Z,54.93
2019-02-14T00:58:27.914Z,55.22
2019-02-14T01:00:29.518Z,55.03
2019-02-14T01:02:31.145Z,55.03
2019-02-14T01:04:32.777Z,55.13
2019-02-14T01:06:34.392Z,54.97
2019-02-14T01:08:36.065Z,55.24
2019-02-14T01:10:37.652Z,55.19
2019-02-14T01:12:39.293Z,55.50
2019-02-14T01:14:40.900Z,55.20
2019-02-14T01:16:42.485Z,55.58
2019-02-14T01:18:44.120Z,55.45
2019-02-14T01:20:45.728Z,55.33
2019-02-14T01:22:47.363Z,55.32
2019-02-14T01:24:48.968Z,55.22
2019-02-14T01:26:50.562Z,55.46
2019-02-14T01:28:52.185Z,55.11
2019-02-14T01:30:53.801Z,55.30
2019-02-14T01:32:55.412Z,55.27
2019-02-14T01:34:57.019Z,55.34
2019-02-14T01:36:58.633Z,55.40
2019-02-14T01:39:00.226Z,55.43
2019-02-14T01:41:01.814Z,55.25
2019-02-14T01:43:03.415Z,55.20
2019-02-14T01:45:05.054Z,55.30
2019-02-14T01:47:07.950Z,55.41
2019-02-14T01:49:08.298Z,55.73
2019-02-14T01:51:09.891Z,55.61
2019-02-14T01:53:11.532Z,55.76
2019-02-14T01:55:13.120Z,55.62
2019-02-14T01:57:14.724Z,55.53
2019-02-14T01:59:16.345Z,55.66
2019-02-14T02:01:17.956Z,55.62
2019-02-14T02:03:19.596Z,55.74
2019-02-14T02:05:21.203Z,55.82
2019-02-14T02:07:22.802Z,56.01
2019-02-14T02:09:24.448Z,56.03
2019-02-14T02:11:26.051Z,55.94
2019-02-14T02:13:27.663Z,56.19
2019-02-14T02:15:29.262Z,56.19
2019-02-14T02:17:30.867Z,56.24
2019-02-14T02:19:32.472Z,56.56
2019-02-14T02:21:34.093Z,56.60
2019-02-14T02:23:35.715Z,56.84
2019-02-14T02:25:37.296Z,56.87
2019-02-14T02:27:38.890Z,56.78
2019-02-14T02:29:40.510Z,57.09
2019-02-14T02:31:42.157Z,56.58
2019-02-14T02:33:43.754Z,56.58
2019-02-14T02:35:45.370Z,56.84
2019-02-14T02:37:46.988Z,56.70
2019-02-14T02:39:48.586Z,56.71
2019-02-14T02:41:50.192Z,57.03
2019-02-14T02:43:51.827Z,56.79
2019-02-14T02:45:53.431Z,57.00
2019-02-14T02:47:55.045Z,57.04
2019-02-14T02:49:56.675Z,56.89
2019-02-14T02:51:58.271Z,56.88
2019-02-14T02:53:59.888Z,56.64
2019-02-14T02:56:01.482Z,57.10
2019-02-14T02:58:03.087Z,56.85
2019-02-14T03:00:04.724Z,56.85
2019-02-14T03:02:06.332Z,56.53
2019-02-14T03:04:07.954Z,56.56
2019-02-14T03:06:10.872Z,56.37
2019-02-14T03:08:11.208Z,56.17
2019-02-14T03:10:12.828Z,56.68
2019-02-14T03:12:14.440Z,56.22
2019-02-14T03:14:16.072Z,56.65
2019-02-14T03:16:17.666Z,56.17
2019-02-14T03:18:19.265Z,56.45
2019-02-14T03:20:20.862Z,56.47
2019-02-14T03:22:22.467Z,56.75
2019-02-14T03:24:24.062Z,56.79
2019-02-14T03:26:25.699Z,56.95
2019-02-14T03:28:27.330Z,56.96
2019-02-14T03:30:28.917Z,57.02
2019-02-14T03:32:30.569Z,57.14
2019-02-14T03:34:32.188Z,57.04
2019-02-14T03:36:33.800Z,56.86
2019-02-14T03:38:35.397Z,56.79
2019-02-14T03:40:36.990Z,56.61
2019-02-14T03:42:38.594Z,56.71
2019-02-14T03:44:40.222Z,55.06
2019-02-14T03:46:41.818Z,54.01
2019-02-14T03:48:43.448Z,53.91
2019-02-14T03:50:45.041Z,53.72
2019-02-14T03:52:46.638Z,53.56
2019-02-14T03:54:48.277Z,53.34
2019-02-14T03:56:49.892Z,53.31
2019-02-14T03:58:51.513Z,52.94
2019-02-14T04:00:53.098Z,52.87
2019-02-14T04:02:54.701Z,52.51
2019-02-14T04:04:56.832Z,52.51
2019-02-14T04:06:58.431Z,52.46
2019-02-14T04:09:00.172Z,52.46
2019-02-14T04:11:01.776Z,52.52
2019-02-14T04:13:03.388Z,52.68
2019-02-14T04:15:05.007Z,52.83
2019-02-14T04:17:06.602Z,52.89
2019-02-14T04:19:08.212Z,53.07
2019-02-14T04:21:09.805Z,53.19
2019-02-14T04:23:11.415Z,53.23
2019-02-14T04:25:13.041Z,53.32
2019-02-14T04:27:14.650Z,53.38
2019-02-14T04:29:16.253Z,53.52
2019-02-14T04:31:17.890Z,53.58
2019-02-14T04:33:19.481Z,53.61
2019-02-14T04:35:21.082Z,53.63
2019-02-14T04:37:22.723Z,53.71
2019-02-14T04:39:24.345Z,53.75
2019-02-14T04:41:25.951Z,53.79
2019-02-14T04:43:27.561Z,53.84
2019-02-14T04:45:29.179Z,53.89
2019-02-14T04:47:30.774Z,53.92
2019-02-14T04:49:32.392Z,53.98
2019-02-14T04:51:34.018Z,54.04
2019-02-14T04:53:35.619Z,54.05
2019-02-14T04:55:39.062Z,54.08
2019-02-14T04:57:38.872Z,54.11
2019-02-14T04:59:40.483Z,54.13
2019-02-14T05:01:42.077Z,54.16
2019-02-14T05:03:43.688Z,54.16
2019-02-14T05:05:45.295Z,54.21
2019-02-14T05:07:46.890Z,54.20
2019-02-14T05:09:48.518Z,54.27
2019-02-14T05:11:50.153Z,54.34
2019-02-14T05:13:51.736Z,54.37
2019-02-14T05:15:53.329Z,54.42
2019-02-14T05:17:54.912Z,54.43
2019-02-14T05:19:56.515Z,54.45
2019-02-14T05:21:58.113Z,54.49
2019-02-14T05:23:59.745Z,54.48
2019-02-14T05:26:01.355Z,54.46
2019-02-14T05:28:02.953Z,54.46
2019-02-14T05:30:04.588Z,54.43
2019-02-14T05:32:06.192Z,54.41
2019-02-14T05:34:07.841Z,54.34
2019-02-14T05:36:09.451Z,54.32
2019-02-14T05:38:11.038Z,54.25
2019-02-14T05:40:12.639Z,54.17
2019-02-14T05:42:14.288Z,54.16
2019-02-14T05:44:15.905Z,54.12
2019-02-14T05:46:17.510Z,54.04
2019-02-14T05:48:19.143Z,53.96
2019-02-14T05:50:20.739Z,53.92
2019-02-14T05:52:22.351Z,53.94
2019-02-14T05:54:23.978Z,53.92
2019-02-14T05:56:25.590Z,53.92
2019-02-14T05:58:27.199Z,53.87
2019-02-14T06:00:28.803Z,53.89
2019-02-14T06:02:32.144Z,53.84
2019-02-14T06:04:32.059Z,53.78
2019-02-14T06:06:33.684Z,53.80
2019-02-14T06:08:35.278Z,53.79
2019-02-14T06:10:36.873Z,53.73
2019-02-14T06:12:38.471Z,53.73
2019-02-14T06:14:40.066Z,53.72
2019-02-14T06:16:41.686Z,53.68
2019-02-14T06:18:43.288Z,53.68
2019-02-14T06:20:44.929Z,53.68
2019-02-14T06:22:46.526Z,53.63
2019-02-14T06:24:48.149Z,53.62
2019-02-14T06:26:49.759Z,53.63
2019-02-14T06:28:51.358Z,53.59
2019-02-14T06:30:52.954Z,53.58
2019-02-14T06:32:54.550Z,53.59
2019-02-14T06:34:56.163Z,53.59
2019-02-14T06:36:57.780Z,53.53
2019-02-14T06:38:59.383Z,53.52
2019-02-14T06:41:00.992Z,53.48
2019-02-14T06:43:02.589Z,53.50
2019-02-14T06:45:04.196Z,53.43
2019-02-14T06:47:05.781Z,53.41
2019-02-14T06:49:07.402Z,53.38
2019-02-14T06:51:09.004Z,53.36
2019-02-14T06:53:10.627Z,53.34
2019-02-14T06:55:12.225Z,53.33
2019-02-14T06:57:13.818Z,53.30
2019-02-14T06:59:15.452Z,53.32
2019-02-14T07:01:17.074Z,53.32
2019-02-14T07:03:18.684Z,53.26
2019-02-14T07:05:20.278Z,53.23
2019-02-14T07:07:21.864Z,53.27
2019-02-14T07:09:23.474Z,53.22
2019-02-14T07:11:25.069Z,53.22
2019-02-14T07:13:26.656Z,53.12
2019-02-14T07:15:28.287Z,53.14
2019-02-14T07:17:29.892Z,53.14
2019-02-14T07:19:31.504Z,53.14
2019-02-14T07:21:33.140Z,53.08
2019-02-14T07:23:34.765Z,53.10
2019-02-14T07:25:36.357Z,53.11
2019-02-14T07:27:37.972Z,53.07
2019-02-14T07:29:39.646Z,53.07
2019-02-14T07:31:41.239Z,52.99
2019-02-14T07:33:42.838Z,52.98
2019-02-14T07:35:44.472Z,52.94
2019-02-14T07:37:46.075Z,52.94
2019-02-14T07:39:47.670Z,52.95
2019-02-14T07:41:49.290Z,52.94
2019-02-14T07:43:50.895Z,52.91
2019-02-14T07:45:52.517Z,52.90
2019-02-14T07:47:54.100Z,52.83
2019-02-14T07:49:55.694Z,52.83
2019-02-14T07:51:57.304Z,52.86
2019-02-14T07:53:58.952Z,52.86
2019-02-14T07:56:00.564Z,52.86
2019-02-14T07:58:02.161Z,52.83
2019-02-14T08:00:03.768Z,52.83
2019-02-14T08:02:05.356Z,52.83
2019-02-14T08:04:06.946Z,52.82
2019-02-14T08:06:08.589Z,52.73
2019-02-14T08:08:10.189Z,52.73
2019-02-14T08:10:11.786Z,52.72
2019-02-14T08:12:13.406Z,52.71
2019-02-14T08:14:14.989Z,52.70
2019-02-14T08:16:16.604Z,52.69
2019-02-14T08:18:18.202Z,52.65
2019-02-14T08:20:19.808Z,52.68
2019-02-14T08:22:21.424Z,52.67
2019-02-14T08:24:23.058Z,52.62
2019-02-14T08:26:24.668Z,52.60
2019-02-14T08:28:26.334Z,52.56
2019-02-14T08:30:27.939Z,52.49
2019-02-14T08:32:29.541Z,52.34
2019-02-14T08:34:31.138Z,52.16
2019-02-14T08:36:32.758Z,52.23
2019-02-14T08:38:34.349Z,52.38
2019-02-14T08:40:35.934Z,52.43
2019-02-14T08:42:37.540Z,52.47
2019-02-14T08:44:39.137Z,52.50
2019-02-14T08:46:40.771Z,52.35
2019-02-14T08:48:42.384Z,52.23
2019-02-14T08:50:43.995Z,51.99
2019-02-14T08:52:45.599Z,51.76
2019-02-14T08:54:47.198Z,51.53
2019-02-14T08:56:48.790Z,51.49
2019-02-14T08:58:50.384Z,51.27
2019-02-14T09:00:51.996Z,51.12
2019-02-14T09:02:53.599Z,51.09
2019-02-14T09:04:55.204Z,51.09
2019-02-14T09:06:56.856Z,50.99
2019-02-14T09:08:58.464Z,50.95
2019-02-14T09:11:00.081Z,50.94
2019-02-14T09:13:01.706Z,50.91
2019-02-14T09:15:03.307Z,50.87
2019-02-14T09:17:04.911Z,50.85
2019-02-14T09:19:06.538Z,50.81
2019-02-14T09:21:08.136Z,50.77
2019-02-14T09:23:09.730Z,50.76
2019-02-14T09:25:11.321Z,50.82
2019-02-14T09:27:12.933Z,50.77
2019-02-14T09:29:14.533Z,50.72
2019-02-14T09:31:16.175Z,50.69
2019-02-14T09:33:17.770Z,50.63
2019-02-14T09:35:19.366Z,50.65
2019-02-14T09:37:20.971Z,50.69
2019-02-14T09:39:22.570Z,50.64
2019-02-14T09:41:24.165Z,50.61
2019-02-14T09:43:29.853Z,50.65
2019-02-14T09:45:27.442Z,50.77
2019-02-14T09:47:29.060Z,50.76
2019-02-14T09:49:30.707Z,50.69
2019-02-14T09:51:32.319Z,50.64
2019-02-14T09:53:33.942Z,50.58
2019-02-14T09:55:35.561Z,50.53
2019-02-14T09:57:37.166Z,50.53
2019-02-14T09:59:38.748Z,50.57
2019-02-14T10:01:40.379Z,50.56
2019-02-14T10:03:41.990Z,50.56
2019-02-14T10:05:43.615Z,50.52
2019-02-14T10:07:45.250Z,50.50
2019-02-14T10:09:47.705Z,50.55
2019-02-14T10:11:49.328Z,50.54
2019-02-14T10:13:50.963Z,50.52
2019-02-14T10:15:52.580Z,50.54
2019-02-14T10:17:54.247Z,50.54
2019-02-14T10:19:56.006Z,50.53
2019-02-14T10:21:57.605Z,50.49
2019-02-14T10:23:59.226Z,50.52
2019-02-14T10:26:00.821Z,50.47
2019-02-14T10:28:02.422Z,50.48
2019-02-14T10:30:04.065Z,50.58
2019-02-14T10:32:05.665Z,50.63
2019-02-14T10:34:07.263Z,50.66
2019-02-14T10:36:08.895Z,50.79
2019-02-14T10:38:10.488Z,50.82
2019-02-14T10:40:12.096Z,50.88
2019-02-14T10:42:13.722Z,50.98
2019-02-14T10:44:15.319Z,51.03
2019-02-14T10:46:16.952Z,51.05
2019-02-14T10:48:18.550Z,51.11
2019-02-14T10:50:20.160Z,51.15
2019-02-14T10:52:21.780Z,51.13
2019-02-14T10:54:23.373Z,51.13
2019-02-14T10:56:24.955Z,51.00
2019-02-14T10:58:26.583Z,50.89
2019-02-14T11:00:28.196Z,50.87
2019-02-14T11:02:29.784Z,50.87
2019-02-14T11:04:31.391Z,50.78
2019-02-14T11:06:33.004Z,50.77
2019-02-14T11:08:34.660Z,50.75
2019-02-14T11:10:36.262Z,50.80
2019-02-14T11:12:37.848Z,50.87
2019-02-14T11:14:39.442Z,50.92
2019-02-14T11:16:41.038Z,50.97
2019-02-14T11:18:44.606Z,51.00
2019-02-14T11:20:44.344Z,51.00
2019-02-14T11:22:45.924Z,50.95
2019-02-14T11:24:47.524Z,50.82
2019-02-14T11:26:49.739Z,50.78
2019-02-14T11:28:51.324Z,50.66
2019-02-14T11:30:52.917Z,50.55
2019-02-14T11:32:55.420Z,50.53
2019-02-14T11:34:57.031Z,50.48
2019-02-14T11:36:58.671Z,50.46
2019-02-14T11:39:00.316Z,50.54
2019-02-14T11:41:01.927Z,50.56
2019-02-14T11:43:03.539Z,50.47
2019-02-14T11:45:05.156Z,50.54
2019-02-14T11:47:07.841Z,50.48
2019-02-14T11:49:08.418Z,50.49
2019-02-14T11:51:10.092Z,50.44
2019-02-14T11:53:14.200Z,50.50
2019-02-14T11:55:13.329Z,50.51
2019-02-14T11:57:14.958Z,50.50
2019-02-14T11:59:16.882Z,50.44
2019-02-14T12:01:18.569Z,50.47
2019-02-14T12:03:20.179Z,50.43
2019-02-14T12:05:21.774Z,50.43
2019-02-14T12:07:23.412Z,50.50
2019-02-14T12:09:24.995Z,50.46
2019-02-14T12:11:26.593Z,50.46
2019-02-14T12:13:28.205Z,50.39
2019-02-14T12:15:29.830Z,50.40
2019-02-14T12:17:31.479Z,50.43
2019-02-14T12:19:33.068Z,50.45
2019-02-14T12:21:34.662Z,50.44
2019-02-14T12:23:36.295Z,50.52
2019-02-14T12:25:37.964Z,50.62
2019-02-14T12:27:39.615Z,50.73
2019-02-14T12:29:41.223Z,50.70
2019-02-14T12:31:42.823Z,50.73
2019-02-14T12:33:44.450Z,50.74
2019-02-14T12:35:46.105Z,50.70
2019-02-14T12:37:47.725Z,50.80
2019-02-14T12:39:49.634Z,50.90
2019-02-14T12:41:51.332Z,50.92
2019-02-14T12:43:52.986Z,50.92
2019-02-14T12:45:54.576Z,50.92
2019-02-14T12:47:56.175Z,50.90
2019-02-14T12:49:57.769Z,50.93
2019-02-14T12:51:59.365Z,50.91
2019-02-14T12:54:01.003Z,50.83
2019-02-14T12:56:02.591Z,50.80
2019-02-14T12:58:04.219Z,50.75
2019-02-14T13:00:05.829Z,50.65
2019-02-14T13:02:07.416Z,50.61
2019-02-14T13:04:09.044Z,50.65
2019-02-14T13:06:10.654Z,50.79
2019-02-14T13:08:12.309Z,50.92
2019-02-14T13:10:13.906Z,50.96
2019-02-14T13:12:15.498Z,50.97
2019-02-14T13:14:17.101Z,50.99
2019-02-14T13:16:18.710Z,51.02
2019-02-14T13:18:20.305Z,50.99
2019-02-14T13:20:21.936Z,51.00
2019-02-14T13:22:23.535Z,51.01
2019-02-14T13:24:25.120Z,51.04
2019-02-14T13:26:26.730Z,51.02
2019-02-14T13:28:28.336Z,51.03
2019-02-14T13:30:29.956Z,51.07
2019-02-14T13:32:31.564Z,51.11
2019-02-14T13:34:33.180Z,51.10
2019-02-14T13:36:34.798Z,51.11
2019-02-14T13:38:36.443Z,51.10
2019-02-14T13:40:38.047Z,51.11
2019-02-14T13:42:39.658Z,51.09
2019-02-14T13:44:43.072Z,51.13
2019-02-14T13:46:42.920Z,51.11
2019-02-14T13:48:44.514Z,51.10
2019-02-14T13:50:46.137Z,51.15
2019-02-14T13:52:47.734Z,51.20
2019-02-14T13:54:49.315Z,51.28
2019-02-14T13:56:54.082Z,51.34
2019-02-14T13:58:52.566Z,51.41
2019-02-14T14:00:54.149Z,51.42
2019-02-14T14:02:55.797Z,51.38
2019-02-14T14:04:57.374Z,51.36
2019-02-14T14:06:58.970Z,51.33
2019-02-14T14:09:00.569Z,51.37
2019-02-14T14:11:02.175Z,51.29
2019-02-14T14:13:03.814Z,51.31
2019-02-14T14:15:05.412Z,51.40
2019-02-14T14:17:07.006Z,51.44
2019-02-14T14:19:08.598Z,51.47
2019-02-14T14:21:10.199Z,51.59
2019-02-14T14:23:11.802Z,51.70
2019-02-14T14:25:13.495Z,51.76
2019-02-14T14:27:15.158Z,51.87
2019-02-14T14:29:16.803Z,51.91
2019-02-14T14:31:18.428Z,51.90
2019-02-14T14:33:20.032Z,51.86
2019-02-14T14:35:21.672Z,51.80
2019-02-14T14:37:23.270Z,51.76
2019-02-14T14:39:24.875Z,51.72
2019-02-14T14:41:26.487Z,51.68
2019-02-14T14:43:28.579Z,51.66
2019-02-14T14:45:35.844Z,51.60
2019-02-14T14:47:37.442Z,51.57
2019-02-14T14:49:39.069Z,51.58
2019-02-14T14:51:40.692Z,51.43
2019-02-14T14:53:42.313Z,51.58
2019-02-14T14:55:44.002Z,51.60
2019-02-14T14:57:45.598Z,51.65
2019-02-14T14:59:47.222Z,51.48
2019-02-14T15:01:48.832Z,51.46
2019-02-14T15:03:52.226Z,51.32
2019-02-14T15:05:52.611Z,51.29
2019-02-14T15:07:54.206Z,51.18
2019-02-14T15:09:57.737Z,51.22
2019-02-14T15:11:57.784Z,50.81
2019-02-14T15:13:59.466Z,50.75
2019-02-14T15:16:01.056Z,50.83
2019-02-14T15:18:02.656Z,50.83
2019-02-14T15:20:04.303Z,50.93
2019-02-14T15:22:06.635Z,50.90
2019-02-14T15:24:08.234Z,50.97
2019-02-14T15:26:09.866Z,51.10
2019-02-14T15:28:11.467Z,51.08
2019-02-14T15:30:13.081Z,51.05
2019-02-14T15:32:14.678Z,51.15
2019-02-14T15:34:16.276Z,51.13
2019-02-14T15:36:17.893Z,51.42
2019-02-14T15:38:19.518Z,51.68
2019-02-14T15:40:21.139Z,51.71
2019-02-14T15:42:22.755Z,51.57
2019-02-14T15:44:24.387Z,51.61
2019-02-14T15:46:26.054Z,51.55
2019-02-14T15:48:27.737Z,51.60
2019-02-14T15:50:30.005Z,51.30
2019-02-14T15:52:32.232Z,51.37
2019-02-14T15:54:33.169Z,51.64
2019-02-14T15:56:34.315Z,51.60
2019-02-14T15:58:35.937Z,51.74
2019-02-14T16:00:37.519Z,51.92
2019-02-14T16:02:39.135Z,52.50
2019-02-14T16:04:40.734Z,52.35
2019-02-14T16:06:42.339Z,52.68
2019-02-14T16:08:44.631Z,52.50
2019-02-14T16:10:45.643Z,52.84
2019-02-14T16:12:47.258Z,52.81
2019-02-14T16:14:48.840Z,52.82
2019-02-14T16:16:50.517Z,52.98
2019-02-14T16:18:52.118Z,53.11
2019-02-14T16:20:53.715Z,53.20
2019-02-14T16:22:55.349Z,52.95
2019-02-14T16:24:56.965Z,52.96
2019-02-14T16:26:59.199Z,53.13
2019-02-14T16:29:02.026Z,53.21
2019-02-14T16:31:02.000Z,53.30
2019-02-14T16:33:03.639Z,53.45
2019-02-14T16:35:05.287Z,53.58
2019-02-14T16:37:06.956Z,53.63
2019-02-14T16:39:08.567Z,53.81
2019-02-14T16:41:10.196Z,53.91
2019-02-14T16:43:11.833Z,53.64
2019-02-14T16:45:13.435Z,53.88
2019-02-14T16:47:15.045Z,54.04
2019-02-14T16:49:16.647Z,53.84
2019-02-14T16:51:18.296Z,54.22
2019-02-14T16:53:19.893Z,54.04
2019-02-14T16:55:21.496Z,54.13
2019-02-14T16:57:23.140Z,54.24
2019-02-14T16:59:24.752Z,54.20
2019-02-14T17:01:26.359Z,54.31
2019-02-14T17:03:28.716Z,54.33
2019-02-14T17:05:30.337Z,54.18
2019-02-14T17:07:31.971Z,54.34
2019-02-14T17:09:33.586Z,54.43
2019-02-14T17:11:35.190Z,54.37
2019-02-14T17:13:36.801Z,54.38
2019-02-14T17:15:38.432Z,54.55
2019-02-14T17:17:40.024Z,54.53
2019-02-14T17:19:41.646Z,54.42
2019-02-14T17:21:43.252Z,54.99
2019-02-14T17:23:44.889Z,54.79
2019-02-14T17:25:46.487Z,54.55
2019-02-14T17:27:48.102Z,54.42
2019-02-14T17:29:49.702Z,54.20
2019-02-14T17:31:51.294Z,54.27
2019-02-14T17:33:52.989Z,53.91
2019-02-14T17:35:54.576Z,53.76
2019-02-14T17:37:56.179Z,53.80
2019-02-14T17:39:57.812Z,53.30
2019-02-14T17:41:59.420Z,53.34
2019-02-14T17:44:01.041Z,53.31
2019-02-14T17:46:02.675Z,53.35
2019-02-14T17:48:04.288Z,53.33
2019-02-14T17:50:05.874Z,53.36
2019-02-14T17:52:07.475Z,53.43
2019-02-14T17:54:09.060Z,53.79
2019-02-14T17:56:10.725Z,53.59
2019-02-14T17:58:12.359Z,53.74
2019-02-14T18:00:13.952Z,53.92
2019-02-14T18:02:16.127Z,53.46
2019-02-14T18:04:17.726Z,53.23
2019-02-14T18:06:19.332Z,53.20
2019-02-14T18:08:20.916Z,53.17
2019-02-14T18:10:22.524Z,53.07
2019-02-14T18:12:24.117Z,53.09
2019-02-14T18:14:25.715Z,53.39
2019-02-14T18:16:27.317Z,53.88
2019-02-14T18:18:28.938Z,52.85
2019-02-14T18:20:30.553Z,53.87
2019-02-14T18:22:32.301Z,52.17
2019-02-14T18:24:34.008Z,51.97
2019-02-14T18:26:35.640Z,52.06
2019-02-14T18:28:37.237Z,51.94
2019-02-14T18:30:38.830Z,52.43
2019-02-14T18:32:40.468Z,52.38
2019-02-14T18:34:42.071Z,51.48
2019-02-14T18:36:43.684Z,52.04
2019-02-14T18:38:45.300Z,51.76
2019-02-14T18:40:46.992Z,52.08
2019-02-14T18:42:48.644Z,51.66
2019-02-14T18:44:50.292Z,51.88
2019-02-14T18:46:51.890Z,52.05
2019-02-14T18:48:53.585Z,52.57
2019-02-14T18:50:55.221Z,52.23
2019-02-14T18:52:56.836Z,52.00
2019-02-14T18:54:58.432Z,51.67
2019-02-14T18:57:00.026Z,51.76
2019-02-14T18:59:01.640Z,51.89
2019-02-14T19:01:03.281Z,51.90
2019-02-14T19:03:04.900Z,51.44
2019-02-14T19:05:06.505Z,50.88
2019-02-14T19:07:08.354Z,51.43
2019-02-14T19:09:10.047Z,51.70
2019-02-14T19:11:15.153Z,51.16
2019-02-14T19:13:13.341Z,51.17
2019-02-14T19:15:14.952Z,51.45
2019-02-14T19:17:16.546Z,52.33
2019-02-14T19:19:18.212Z,52.93
2019-02-14T19:21:19.910Z,52.83
2019-02-14T19:23:24.266Z,52.40
2019-02-14T19:25:23.352Z,52.96
2019-02-14T19:27:24.959Z,53.93
2019-02-14T19:29:26.566Z,53.83
2019-02-14T19:31:28.199Z,54.24
2019-02-14T19:33:29.836Z,53.69
2019-02-14T19:35:31.439Z,53.92
2019-02-14T19:37:33.043Z,53.79
2019-02-14T19:39:34.637Z,52.98
2019-02-14T19:41:36.257Z,52.71
2019-02-14T19:43:37.861Z,52.64
2019-02-14T19:45:39.490Z,52.48
2019-02-14T19:47:41.153Z,52.37
2019-02-14T19:49:42.754Z,51.76
2019-02-14T19:51:44.376Z,52.26
2019-02-14T19:53:46.041Z,52.53
2019-02-14T19:55:47.712Z,52.50
2019-02-14T19:57:49.344Z,53.33
2019-02-14T19:59:50.991Z,53.71
2019-02-14T20:01:52.598Z,53.81
2019-02-14T20:03:54.197Z,54.05
2019-02-14T20:05:55.818Z,53.08
2019-02-14T20:07:57.468Z,52.98
2019-02-14T20:09:59.108Z,53.08
2019-02-14T20:12:00.717Z,52.95
2019-02-14T20:14:02.363Z,52.25
2019-02-14T20:16:04.884Z,51.02
2019-02-14T20:18:05.632Z,51.86
2019-02-14T20:20:07.296Z,52.22
2019-02-14T20:22:08.887Z,51.91
2019-02-14T20:24:10.481Z,51.74
2019-02-14T20:26:12.078Z,51.64
2019-02-14T20:28:13.723Z,51.68
2019-02-14T20:30:15.337Z,51.86
2019-02-14T20:32:16.980Z,51.57
2019-02-14T20:34:18.575Z,51.52
2019-02-14T20:36:20.202Z,51.77
2019-02-14T20:38:21.883Z,52.87
2019-02-14T20:40:23.489Z,51.52
2019-02-14T20:42:25.091Z,51.74
2019-02-14T20:44:26.723Z,51.69
2019-02-14T20:46:28.337Z,51.62
2019-02-14T20:48:29.944Z,50.48
2019-02-14T20:50:31.582Z,51.00
2019-02-14T20:52:33.183Z,51.98
2019-02-14T20:54:34.796Z,51.56
2019-02-14T20:56:36.417Z,50.92
2019-02-14T20:58:38.075Z,50.84
2019-02-14T21:00:39.693Z,50.84
2019-02-14T21:02:41.295Z,50.94
2019-02-14T21:04:42.899Z,50.50
2019-02-14T21:06:44.513Z,49.95
2019-02-14T21:08:46.146Z,50.96
2019-02-14T21:10:47.756Z,51.39
2019-02-14T21:12:49.372Z,51.66
2019-02-14T21:14:50.984Z,51.79
2019-02-14T21:16:52.603Z,51.54
2019-02-14T21:18:54.238Z,50.76
2019-02-14T21:20:55.925Z,51.26
2019-02-14T21:22:57.532Z,50.54
2019-02-14T21:24:59.191Z,50.40
2019-02-14T21:27:00.784Z,50.17
2019-02-14T21:29:02.382Z,51.57
2019-02-14T21:31:04.036Z,51.29
2019-02-14T21:33:05.678Z,50.70
2019-02-14T21:35:07.306Z,51.95
2019-02-14T21:37:08.984Z,52.00
2019-02-14T21:39:10.589Z,52.62
2019-02-14T21:41:12.191Z,52.06
2019-02-14T21:43:13.841Z,52.83
2019-02-14T21:45:15.493Z,52.52
2019-02-14T21:47:17.178Z,52.23
2019-02-14T21:49:18.792Z,43.57
2019-02-14T21:51:20.414Z,39.44
2019-02-14T21:53:22.049Z,48.00
2019-02-14T21:55:23.696Z,47.60
2019-02-14T21:57:25.327Z,47.19
2019-02-14T21:59:26.996Z,47.46
2019-02-14T22:01:28.626Z,47.93
2019-02-14T22:03:30.253Z,48.33
2019-02-14T22:05:32.246Z,48.60
2019-02-14T22:07:35.189Z,49.29
2019-02-14T22:09:35.528Z,49.48
2019-02-14T22:11:37.169Z,49.68
2019-02-14T22:13:38.788Z,49.93
2019-02-14T22:15:40.405Z,50.07
2019-02-14T22:17:42.053Z,50.32
2019-02-14T22:19:43.646Z,50.64
2019-02-14T22:21:45.237Z,50.76
2019-02-14T22:23:46.844Z,50.95
2019-02-14T22:25:48.452Z,51.09
2019-02-14T22:27:50.049Z,51.23
2019-02-14T22:29:51.674Z,51.42
2019-02-14T22:31:53.277Z,51.50
2019-02-14T22:33:55.143Z,51.66
2019-02-14T22:35:56.836Z,51.75
2019-02-14T22:37:58.472Z,51.95
2019-02-14T22:40:00.145Z,51.98
2019-02-14T22:42:01.739Z,52.05
2019-02-14T22:44:03.344Z,52.18
2019-02-14T22:46:04.956Z,52.35
2019-02-14T22:48:06.596Z,52.42
2019-02-14T22:50:08.194Z,52.47
2019-02-14T22:52:09.777Z,52.62
2019-02-14T22:54:11.384Z,52.55
2019-02-14T22:56:12.978Z,52.71
2019-02-14T22:58:14.577Z,52.77
2019-02-14T23:00:16.197Z,52.98
2019-02-14T23:02:17.794Z,53.33
2019-02-14T23:04:19.383Z,53.27
2019-02-14T23:06:20.998Z,53.24
2019-02-14T23:08:22.608Z,53.26
2019-02-14T23:10:24.214Z,53.41
2019-02-14T23:12:25.879Z,53.46
2019-02-14T23:14:27.506Z,53.49
2019-02-14T23:16:29.142Z,53.50
2019-02-14T23:18:30.737Z,53.51
2019-02-14T23:20:32.340Z,53.51
2019-02-14T23:22:33.947Z,53.61
2019-02-14T23:24:35.572Z,53.55
2019-02-14T23:26:37.187Z,53.69
2019-02-14T23:28:38.781Z,53.55
2019-02-14T23:30:40.410Z,53.90
2019-02-14T23:32:42.015Z,53.78
2019-02-14T23:34:43.610Z,54.02
2019-02-14T23:36:45.220Z,54.16
2019-02-14T23:38:46.818Z,54.08
2019-02-14T23:40:48.400Z,54.05
2019-02-14T23:42:50.029Z,54.16
2019-02-14T23:44:51.639Z,54.30
2019-02-14T23:46:53.233Z,54.44
2019-02-14T23:48:54.831Z,54.89
2019-02-14T23:50:56.445Z,55.08
2019-02-14T23:52:58.053Z,55.40
2019-02-14T23:54:59.664Z,55.79
2019-02-14T23:57:01.287Z,55.59
2019-02-14T23:59:02.897Z,56.05
